createdAt,value
2019-03-23T00:01:49.652Z,8.42
2019-03-23T00:04:17.319Z,8.60
2019-03-23T00:06:44.968Z,8.23
2019-03-23T00:09:12.711Z,8.02
2019-03-23T00:11:40.358Z,7.94
2019-03-23T00:14:08.031Z,8.04
2019-03-23T00:16:35.815Z,8.25
2019-03-23T00:19:04.029Z,8.34
2019-03-23T00:21:31.720Z,8.32
2019-03-23T00:23:59.415Z,8.26
2019-03-23T00:26:27.076Z,8.07
2019-03-23T00:28:54.775Z,8.00
2019-03-23T00:31:22.435Z,7.95
2019-03-23T00:33:50.097Z,8.02
2019-03-23T00:36:17.771Z,8.10
2019-03-23T00:38:45.435Z,8.20
2019-03-23T00:41:13.091Z,8.32
2019-03-23T00:43:40.750Z,8.68
2019-03-23T00:46:09.245Z,8.76
2019-03-23T00:48:38.316Z,8.77
2019-03-23T00:51:06.030Z,8.79
2019-03-23T00:53:33.687Z,8.67
2019-03-23T00:56:01.431Z,8.65
2019-03-23T00:58:29.087Z,8.59
2019-03-23T01:00:56.736Z,8.57
2019-03-23T01:03:24.398Z,8.54
2019-03-23T01:05:52.055Z,8.49
2019-03-23T01:08:19.722Z,8.51
2019-03-23T01:10:47.891Z,8.35
2019-03-23T01:13:15.559Z,8.49
2019-03-23T01:15:43.219Z,8.43
2019-03-23T01:18:10.895Z,8.38
2019-03-23T01:20:49.093Z,8.32
2019-03-23T01:23:07.959Z,8.36
2019-03-23T01:25:35.615Z,8.26
2019-03-23T01:28:03.276Z,8.21
2019-03-23T01:30:30.936Z,7.98
2019-03-23T01:32:58.595Z,8.10
2019-03-23T01:35:26.321Z,8.09
2019-03-23T01:37:53.978Z,8.02
2019-03-23T01:40:21.646Z,8.10
2019-03-23T01:42:49.340Z,8.17
2019-03-23T01:45:17.057Z,7.92
2019-03-23T01:47:44.746Z,7.72
2019-03-23T01:50:12.410Z,7.75
2019-03-23T01:52:40.066Z,7.57
2019-03-23T01:55:07.741Z,7.53
2019-03-23T01:57:35.398Z,7.42
2019-03-23T02:00:03.119Z,7.37
2019-03-23T02:02:30.770Z,7.42
2019-03-23T02:04:58.435Z,7.41
2019-03-23T02:07:26.088Z,7.28
2019-03-23T02:09:53.747Z,6.97
2019-03-23T02:12:21.403Z,7.01
2019-03-23T02:14:49.145Z,6.93
2019-03-23T02:17:16.962Z,6.98
2019-03-23T02:19:44.750Z,6.99
2019-03-23T02:22:12.396Z,7.01
2019-03-23T02:24:40.058Z,7.07
2019-03-23T02:27:07.707Z,7.25
2019-03-23T02:29:35.397Z,7.23
2019-03-23T02:32:03.236Z,7.11
2019-03-23T02:34:31.083Z,7.04
2019-03-23T02:36:58.852Z,7.15
2019-03-23T02:39:26.510Z,7.01
2019-03-23T02:41:54.164Z,6.81
2019-03-23T02:44:21.819Z,6.81
2019-03-23T02:46:49.475Z,6.86
2019-03-23T02:49:17.180Z,6.50
2019-03-23T02:51:44.924Z,6.44
2019-03-23T02:54:12.779Z,6.38
2019-03-23T02:56:40.435Z,6.48
2019-03-23T02:59:08.092Z,6.51
2019-03-23T03:01:35.805Z,6.62
2019-03-23T03:04:03.524Z,6.57
2019-03-23T03:06:31.248Z,6.61
2019-03-23T03:08:58.968Z,6.42
2019-03-23T03:11:26.960Z,6.42
2019-03-23T03:13:54.652Z,6.57
2019-03-23T03:16:22.332Z,6.45
2019-03-23T03:18:49.983Z,6.46
2019-03-23T03:21:17.653Z,6.33
2019-03-23T03:23:45.522Z,6.30
2019-03-23T03:26:13.249Z,6.51
2019-03-23T03:28:41.205Z,6.54
2019-03-23T03:31:08.923Z,6.57
2019-03-23T03:33:36.586Z,6.59
2019-03-23T03:36:04.334Z,6.54
2019-03-23T03:38:32.002Z,6.57
2019-03-23T03:41:00.040Z,6.55
2019-03-23T03:43:28.080Z,6.49
2019-03-23T03:45:55.758Z,6.51
2019-03-23T03:48:23.421Z,6.56
2019-03-23T03:50:51.083Z,6.62
2019-03-23T03:53:18.740Z,6.46
2019-03-23T03:55:46.505Z,6.26
2019-03-23T03:58:14.163Z,6.29
2019-03-23T04:00:41.828Z,6.31
2019-03-23T04:03:09.520Z,6.21
2019-03-23T04:05:37.546Z,6.23
2019-03-23T04:08:11.528Z,6.25
2019-03-23T04:10:34.619Z,6.27
2019-03-23T04:13:02.355Z,6.26
2019-03-23T04:15:30.208Z,6.26
2019-03-23T04:17:57.957Z,6.10
2019-03-23T04:20:25.670Z,5.86
2019-03-23T04:22:53.322Z,5.97
2019-03-23T04:25:21.034Z,6.12
2019-03-23T04:27:48.757Z,6.07
2019-03-23T04:30:16.562Z,5.98
2019-03-23T04:32:44.260Z,6.04
2019-03-23T04:35:11.911Z,6.14
2019-03-23T04:37:39.581Z,6.21
2019-03-23T04:40:07.237Z,6.15
2019-03-23T04:42:35.224Z,6.09
2019-03-23T04:45:02.881Z,6.06
2019-03-23T04:47:30.581Z,6.05
2019-03-23T04:49:58.398Z,6.05
2019-03-23T04:52:26.057Z,6.04
2019-03-23T04:54:53.732Z,5.93
2019-03-23T04:57:21.391Z,5.93
2019-03-23T04:59:49.138Z,6.03
2019-03-23T05:02:16.798Z,6.03
2019-03-23T05:04:44.469Z,6.12
2019-03-23T05:07:12.127Z,6.04
2019-03-23T05:09:39.788Z,5.99
2019-03-23T05:12:07.447Z,5.95
2019-03-23T05:14:35.107Z,6.03
2019-03-23T05:17:02.856Z,6.05
2019-03-23T05:19:30.511Z,5.95
2019-03-23T05:21:58.236Z,5.96
2019-03-23T05:24:25.943Z,6.05
2019-03-23T05:26:53.643Z,6.15
2019-03-23T05:29:21.375Z,6.17
2019-03-23T05:31:49.054Z,6.15
2019-03-23T05:34:16.708Z,6.11
2019-03-23T05:36:44.574Z,6.16
2019-03-23T05:39:12.244Z,6.10
2019-03-23T05:41:39.912Z,6.16
2019-03-23T05:44:07.571Z,6.20
2019-03-23T05:46:35.234Z,6.34
2019-03-23T05:49:02.907Z,6.49
2019-03-23T05:51:30.590Z,6.70
2019-03-23T05:53:58.454Z,6.91
2019-03-23T05:56:26.111Z,7.05
2019-03-23T05:58:53.771Z,7.25
2019-03-23T06:01:21.516Z,7.40
2019-03-23T06:03:49.235Z,7.52
2019-03-23T06:06:16.955Z,7.64
2019-03-23T06:08:54.219Z,7.77
2019-03-23T06:11:13.989Z,7.99
2019-03-23T06:13:41.727Z,8.08
2019-03-23T06:16:09.423Z,8.25
2019-03-23T06:18:37.109Z,8.32
2019-03-23T06:21:08.888Z,8.51
2019-03-23T06:23:36.576Z,8.64
2019-03-23T06:26:06.458Z,8.76
2019-03-23T06:28:33.810Z,8.90
2019-03-23T06:31:01.458Z,9.11
2019-03-23T06:33:29.203Z,9.32
2019-03-23T06:35:56.888Z,9.43
2019-03-23T06:38:24.995Z,9.48
2019-03-23T06:40:52.654Z,9.56
2019-03-23T06:43:20.307Z,9.62
2019-03-23T06:45:47.968Z,9.83
2019-03-23T06:48:15.683Z,10.09
2019-03-23T06:50:43.469Z,10.23
2019-03-23T06:53:11.138Z,10.29
2019-03-23T06:55:38.791Z,10.20
2019-03-23T06:58:06.467Z,10.22
2019-03-23T07:00:34.129Z,10.43
2019-03-23T07:03:01.793Z,10.57
2019-03-23T07:05:29.443Z,10.88
2019-03-23T07:07:57.106Z,10.90
2019-03-23T07:10:24.751Z,11.06
2019-03-23T07:12:52.410Z,11.21
2019-03-23T07:15:20.652Z,11.39
2019-03-23T07:17:48.550Z,11.56
2019-03-23T07:20:16.315Z,11.76
2019-03-23T07:22:44.048Z,11.76
2019-03-23T07:25:11.715Z,11.94
2019-03-23T07:27:39.380Z,12.01
2019-03-23T07:30:07.043Z,12.10
2019-03-23T07:32:34.712Z,12.82
2019-03-23T07:35:02.381Z,12.82
2019-03-23T07:37:30.087Z,12.72
2019-03-23T07:39:57.740Z,12.92
2019-03-23T07:42:25.395Z,13.12
2019-03-23T07:44:53.062Z,13.42
2019-03-23T07:47:20.719Z,13.60
2019-03-23T07:49:48.387Z,13.52
2019-03-23T07:52:16.075Z,13.53
2019-03-23T07:54:43.832Z,13.49
2019-03-23T07:57:11.596Z,13.59
2019-03-23T07:59:39.257Z,13.98
2019-03-23T08:02:06.988Z,14.01
2019-03-23T08:04:34.659Z,14.29
2019-03-23T08:07:02.315Z,14.50
2019-03-23T08:09:37.550Z,14.60
2019-03-23T08:11:59.344Z,14.36
2019-03-23T08:14:27.018Z,14.53
2019-03-23T08:16:54.823Z,14.71
2019-03-23T08:19:22.614Z,14.84
2019-03-23T08:21:50.463Z,14.97
2019-03-23T08:24:18.131Z,15.18
2019-03-23T08:26:45.800Z,15.58
2019-03-23T08:29:13.474Z,15.55
2019-03-23T08:31:41.215Z,15.45
2019-03-23T08:34:08.890Z,15.82
2019-03-23T08:36:36.544Z,15.97
2019-03-23T08:39:04.687Z,16.44
2019-03-23T08:41:32.343Z,16.44
2019-03-23T08:44:00.013Z,16.54
2019-03-23T08:46:27.728Z,16.72
2019-03-23T08:48:55.443Z,16.95
2019-03-23T08:51:23.159Z,16.76
2019-03-23T08:53:51.558Z,16.93
2019-03-23T08:56:19.270Z,17.20
2019-03-23T08:58:47.005Z,17.40
2019-03-23T09:01:14.686Z,17.27
2019-03-23T09:03:52.052Z,17.39
2019-03-23T09:06:12.271Z,17.43
2019-03-23T09:08:39.933Z,17.68
2019-03-23T09:11:07.721Z,18.04
2019-03-23T09:13:40.618Z,17.94
2019-03-23T09:16:04.824Z,18.10
2019-03-23T09:18:32.484Z,17.80
2019-03-23T09:21:00.159Z,17.90
2019-03-23T09:23:28.010Z,18.23
2019-03-23T09:25:55.800Z,18.05
2019-03-23T09:28:23.546Z,18.45
2019-03-23T09:30:51.294Z,18.45
2019-03-23T09:33:18.951Z,18.65
2019-03-23T09:35:46.610Z,18.50
2019-03-23T09:38:14.271Z,18.86
2019-03-23T09:40:42.045Z,19.03
2019-03-23T09:43:10.272Z,19.10
2019-03-23T09:45:37.926Z,19.19
2019-03-23T09:48:05.587Z,18.94
2019-03-23T09:50:33.242Z,19.39
2019-03-23T09:53:00.940Z,19.33
2019-03-23T09:55:28.859Z,19.43
2019-03-23T09:57:56.651Z,19.68
2019-03-23T10:00:24.333Z,19.40
2019-03-23T10:02:51.982Z,19.62
2019-03-23T10:05:19.635Z,19.82
2019-03-23T10:07:47.279Z,20.21
2019-03-23T10:10:21.761Z,20.26
2019-03-23T10:12:44.366Z,20.02
2019-03-23T10:15:12.034Z,20.30
2019-03-23T10:17:39.674Z,20.34
2019-03-23T10:20:07.351Z,20.64
2019-03-23T10:22:35.002Z,20.49
2019-03-23T10:25:02.667Z,20.47
2019-03-23T10:27:30.359Z,20.20
2019-03-23T10:29:58.095Z,19.99
2019-03-23T10:32:25.742Z,20.18
2019-03-23T10:34:53.388Z,20.66
2019-03-23T10:37:21.085Z,20.35
2019-03-23T10:39:48.722Z,20.40
2019-03-23T10:42:16.948Z,20.32
2019-03-23T10:44:44.670Z,20.36
2019-03-23T10:47:12.316Z,20.39
2019-03-23T10:49:39.965Z,20.39
2019-03-23T10:52:07.610Z,20.51
2019-03-23T10:54:35.287Z,20.63
2019-03-23T10:57:03.014Z,20.07
2019-03-23T10:59:30.667Z,20.74
2019-03-23T11:01:58.480Z,20.54
2019-03-23T11:04:26.128Z,20.53
2019-03-23T11:06:53.794Z,20.66
2019-03-23T11:09:21.442Z,20.53
2019-03-23T11:11:49.129Z,20.40
2019-03-23T11:14:16.844Z,20.42
2019-03-23T11:16:44.748Z,20.64
2019-03-23T11:19:13.508Z,20.74
2019-03-23T11:21:41.470Z,20.48
2019-03-23T11:24:09.117Z,20.67
2019-03-23T11:26:36.785Z,20.54
2019-03-23T11:29:04.455Z,20.73
2019-03-23T11:31:32.127Z,20.95
2019-03-23T11:33:59.787Z,20.73
2019-03-23T11:36:27.492Z,20.90
2019-03-23T11:38:55.162Z,20.73
2019-03-23T11:41:22.848Z,20.59
2019-03-23T11:43:50.568Z,20.85
2019-03-23T11:46:18.240Z,21.01
2019-03-23T11:48:45.897Z,20.50
2019-03-23T11:51:13.550Z,20.64
2019-03-23T11:53:41.211Z,20.85
2019-03-23T11:56:08.878Z,21.13
2019-03-23T11:58:36.647Z,21.01
2019-03-23T12:01:04.296Z,20.77
2019-03-23T12:03:31.951Z,20.72
2019-03-23T12:05:59.600Z,20.66
2019-03-23T12:08:27.267Z,20.94
2019-03-23T12:11:02.552Z,20.58
2019-03-23T12:13:24.275Z,20.56
2019-03-23T12:15:51.936Z,20.53
2019-03-23T12:18:19.602Z,20.92
2019-03-23T12:20:47.256Z,20.72
2019-03-23T12:23:14.913Z,20.64
2019-03-23T12:25:42.567Z,20.72
2019-03-23T12:28:10.219Z,20.60
2019-03-23T12:30:37.897Z,20.48
2019-03-23T12:33:05.555Z,20.55
2019-03-23T12:35:33.206Z,20.96
2019-03-23T12:38:00.863Z,21.06
2019-03-23T12:40:28.534Z,20.83
2019-03-23T12:42:56.236Z,20.95
2019-03-23T12:45:23.936Z,20.53
2019-03-23T12:47:51.767Z,20.60
2019-03-23T12:50:19.433Z,20.60
2019-03-23T12:52:47.075Z,20.67
2019-03-23T12:55:14.737Z,20.69
2019-03-23T12:57:42.395Z,20.57
2019-03-23T13:00:10.119Z,20.57
2019-03-23T13:02:37.800Z,20.02
2019-03-23T13:05:05.439Z,20.30
2019-03-23T13:07:33.086Z,20.48
2019-03-23T13:10:00.765Z,20.31
2019-03-23T13:12:28.503Z,20.31
2019-03-23T13:14:56.150Z,20.42
2019-03-23T13:17:23.996Z,20.32
2019-03-23T13:19:51.653Z,20.19
2019-03-23T13:22:19.340Z,20.25
2019-03-23T13:24:47.012Z,20.34
2019-03-23T13:27:14.675Z,20.55
2019-03-23T13:29:42.344Z,20.13
2019-03-23T13:32:09.990Z,20.22
2019-03-23T13:34:37.655Z,20.30
2019-03-23T13:37:05.339Z,20.16
2019-03-23T13:39:32.995Z,20.24
2019-03-23T13:42:00.701Z,20.05
2019-03-23T13:44:28.368Z,20.04
2019-03-23T13:46:56.023Z,20.08
2019-03-23T13:49:23.670Z,19.98
2019-03-23T13:51:51.361Z,20.27
2019-03-23T13:54:19.010Z,20.16
2019-03-23T13:56:46.663Z,20.16
2019-03-23T13:59:14.343Z,19.83
2019-03-23T14:01:42.015Z,19.80
2019-03-23T14:04:09.659Z,20.04
2019-03-23T14:06:37.315Z,19.98
2019-03-23T14:09:05.325Z,20.29
2019-03-23T14:11:32.996Z,20.21
2019-03-23T14:14:00.645Z,20.09
2019-03-23T14:16:28.315Z,20.19
2019-03-23T14:18:56.357Z,19.87
2019-03-23T14:21:24.122Z,19.83
2019-03-23T14:23:51.773Z,19.78
2019-03-23T14:26:19.439Z,19.58
2019-03-23T14:28:47.124Z,19.78
2019-03-23T14:31:14.822Z,19.83
2019-03-23T14:33:42.534Z,19.83
2019-03-23T14:36:10.190Z,19.78
2019-03-23T14:38:37.837Z,19.73
2019-03-23T14:41:05.495Z,19.83
2019-03-23T14:43:33.143Z,19.74
2019-03-23T14:46:00.806Z,19.72
2019-03-23T14:48:28.454Z,19.60
2019-03-23T14:50:56.226Z,19.50
2019-03-23T14:53:23.882Z,19.69
2019-03-23T14:55:51.544Z,19.70
2019-03-23T14:58:19.211Z,19.59
2019-03-23T15:00:47.094Z,19.44
2019-03-23T15:03:14.867Z,19.45
2019-03-23T15:05:42.607Z,19.48
2019-03-23T15:08:10.371Z,19.52
2019-03-23T15:10:38.058Z,19.53
2019-03-23T15:13:05.809Z,19.59
2019-03-23T15:15:33.586Z,19.61
2019-03-23T15:18:01.240Z,19.57
2019-03-23T15:20:28.898Z,19.43
2019-03-23T15:22:56.541Z,19.37
2019-03-23T15:25:24.194Z,19.21
2019-03-23T15:27:51.847Z,19.29
2019-03-23T15:30:19.554Z,19.25
2019-03-23T15:32:47.268Z,19.10
2019-03-23T15:35:14.923Z,19.11
2019-03-23T15:37:42.583Z,18.99
2019-03-23T15:40:10.233Z,18.97
2019-03-23T15:42:37.885Z,18.85
2019-03-23T15:45:05.542Z,18.88
2019-03-23T15:47:33.259Z,18.90
2019-03-23T15:50:01.007Z,18.85
2019-03-23T15:52:28.663Z,18.84
2019-03-23T15:54:56.313Z,18.81
2019-03-23T15:57:23.993Z,18.73
2019-03-23T15:59:51.634Z,18.77
2019-03-23T16:02:19.346Z,18.69
2019-03-23T16:04:47.025Z,18.66
2019-03-23T16:07:14.711Z,18.58
2019-03-23T16:09:42.414Z,18.65
2019-03-23T16:12:10.072Z,18.56
2019-03-23T16:14:37.730Z,18.54
2019-03-23T16:17:05.387Z,18.49
2019-03-23T16:19:33.067Z,18.41
2019-03-23T16:22:00.779Z,18.39
2019-03-23T16:24:28.467Z,18.43
2019-03-23T16:26:56.134Z,18.26
2019-03-23T16:29:23.807Z,18.21
2019-03-23T16:31:51.539Z,18.21
2019-03-23T16:34:19.260Z,18.13
2019-03-23T16:36:46.902Z,17.96
2019-03-23T16:39:14.566Z,17.89
2019-03-23T16:41:42.251Z,17.92
2019-03-23T16:44:09.929Z,17.75
2019-03-23T16:46:37.612Z,17.85
2019-03-23T16:49:05.278Z,17.46
2019-03-23T16:51:33.003Z,17.46
2019-03-23T16:54:00.671Z,17.50
2019-03-23T16:56:28.319Z,17.37
2019-03-23T16:58:56.036Z,17.38
2019-03-23T17:01:23.810Z,17.37
2019-03-23T17:03:51.488Z,17.14
2019-03-23T17:06:19.361Z,17.14
2019-03-23T17:08:47.087Z,16.85
2019-03-23T17:11:14.744Z,16.70
2019-03-23T17:13:42.404Z,16.68
2019-03-23T17:16:10.063Z,16.47
2019-03-23T17:18:37.734Z,16.23
2019-03-23T17:21:05.431Z,16.21
2019-03-23T17:23:33.098Z,16.01
2019-03-23T17:26:00.755Z,15.80
2019-03-23T17:28:28.425Z,15.61
2019-03-23T17:30:56.186Z,15.57
2019-03-23T17:33:23.859Z,15.50
2019-03-23T17:35:51.516Z,15.29
2019-03-23T17:38:19.233Z,15.19
2019-03-23T17:40:46.870Z,15.17
2019-03-23T17:43:14.826Z,14.94
2019-03-23T17:45:42.497Z,14.77
2019-03-23T17:48:10.239Z,14.79
2019-03-23T17:50:37.917Z,14.43
2019-03-23T17:53:05.568Z,14.43
2019-03-23T17:55:33.236Z,14.46
2019-03-23T17:58:00.969Z,14.29
2019-03-23T18:00:29.411Z,14.29
2019-03-23T18:02:57.224Z,14.22
2019-03-23T18:05:24.970Z,14.13
2019-03-23T18:07:52.639Z,13.98
2019-03-23T18:10:20.343Z,13.89
2019-03-23T18:12:48.124Z,13.68
2019-03-23T18:15:15.796Z,13.68
2019-03-23T18:17:43.452Z,13.57
2019-03-23T18:20:11.118Z,13.32
2019-03-23T18:22:38.782Z,13.16
2019-03-23T18:25:06.449Z,13.02
2019-03-23T18:27:39.482Z,13.02
2019-03-23T18:30:07.146Z,12.95
2019-03-23T18:32:34.803Z,12.98
2019-03-23T18:35:03.284Z,13.07
2019-03-23T18:37:31.168Z,12.98
2019-03-23T18:39:58.855Z,13.07
2019-03-23T18:42:26.515Z,12.86
2019-03-23T18:44:54.179Z,12.92
2019-03-23T18:47:21.842Z,12.92
2019-03-23T18:49:49.511Z,12.78
2019-03-23T18:52:17.323Z,12.67
2019-03-23T18:54:45.103Z,12.63
2019-03-23T18:57:12.799Z,12.64
2019-03-23T18:59:40.456Z,12.64
2019-03-23T19:02:08.112Z,12.58
2019-03-23T19:04:35.775Z,12.58
2019-03-23T19:07:03.568Z,12.36
2019-03-23T19:09:31.322Z,12.42
2019-03-23T19:11:58.999Z,12.34
2019-03-23T19:14:26.683Z,12.32
2019-03-23T19:16:54.360Z,12.22
2019-03-23T19:19:22.027Z,12.05
2019-03-23T19:21:49.683Z,12.07
2019-03-23T19:24:17.364Z,12.13
2019-03-23T19:26:45.103Z,12.03
2019-03-23T19:29:12.802Z,11.78
2019-03-23T19:31:40.755Z,11.62
2019-03-23T19:34:08.451Z,11.61
2019-03-23T19:36:36.107Z,11.66
2019-03-23T19:39:04.823Z,11.48
2019-03-23T19:41:32.501Z,11.48
2019-03-23T19:44:00.251Z,11.70
2019-03-23T19:46:27.916Z,11.50
2019-03-23T19:48:55.573Z,11.50
2019-03-23T19:51:23.235Z,11.40
2019-03-23T19:53:50.902Z,11.50
2019-03-23T19:56:18.588Z,11.51
2019-03-23T19:58:46.246Z,11.53
2019-03-23T20:01:13.914Z,11.51
2019-03-23T20:03:41.577Z,11.43
2019-03-23T20:06:09.241Z,11.39
2019-03-23T20:08:36.898Z,11.39
2019-03-23T20:11:04.612Z,11.28
2019-03-23T20:13:32.268Z,11.19
2019-03-23T20:15:59.963Z,10.98
2019-03-23T20:18:27.618Z,10.97
2019-03-23T20:20:55.279Z,10.75
2019-03-23T20:23:22.964Z,10.65
2019-03-23T20:25:50.692Z,10.58
2019-03-23T20:28:18.770Z,10.51
2019-03-23T20:30:46.650Z,10.64
2019-03-23T20:33:19.385Z,10.56
2019-03-23T20:35:43.752Z,10.49
2019-03-23T20:38:11.482Z,10.33
2019-03-23T20:40:39.175Z,10.35
2019-03-23T20:43:06.835Z,10.47
2019-03-23T20:45:34.512Z,10.21
2019-03-23T20:48:02.167Z,10.17
2019-03-23T20:50:29.837Z,10.20
2019-03-23T20:52:57.508Z,10.18
2019-03-23T20:55:25.246Z,10.13
2019-03-23T20:57:53.006Z,10.17
2019-03-23T21:00:20.751Z,10.04
2019-03-23T21:02:48.424Z,10.06
2019-03-23T21:05:16.089Z,10.02
2019-03-23T21:07:43.813Z,9.90
2019-03-23T21:10:11.519Z,10.02
2019-03-23T21:12:39.194Z,9.93
2019-03-23T21:15:06.864Z,9.93
2019-03-23T21:17:34.525Z,9.92
2019-03-23T21:20:02.263Z,9.95
2019-03-23T21:22:29.973Z,9.91
2019-03-23T21:24:57.764Z,9.92
2019-03-23T21:27:25.513Z,9.91
2019-03-23T21:29:53.210Z,9.83
2019-03-23T21:32:21.244Z,9.84
2019-03-23T21:34:48.903Z,9.77
2019-03-23T21:37:16.563Z,9.76
2019-03-23T21:39:44.286Z,9.90
2019-03-23T21:42:11.940Z,9.87
2019-03-23T21:44:39.609Z,9.99
2019-03-23T21:47:07.279Z,10.15
2019-03-23T21:49:34.938Z,10.23
2019-03-23T21:52:02.600Z,10.27
2019-03-23T21:54:30.264Z,10.22
2019-03-23T21:56:58.005Z,10.25
2019-03-23T21:59:25.877Z,10.10
2019-03-23T22:01:53.531Z,10.07
2019-03-23T22:04:21.191Z,10.11
2019-03-23T22:06:48.866Z,10.19
2019-03-23T22:09:16.531Z,10.14
2019-03-23T22:11:44.231Z,10.07
2019-03-23T22:14:11.915Z,10.10
2019-03-23T22:16:39.666Z,9.94
2019-03-23T22:19:07.327Z,10.09
2019-03-23T22:21:35.000Z,10.08
2019-03-23T22:24:02.668Z,9.89
2019-03-23T22:26:30.332Z,9.90
2019-03-23T22:28:58.024Z,9.99
2019-03-23T22:31:25.682Z,9.92
2019-03-23T22:33:53.340Z,9.98
2019-03-23T22:36:20.992Z,9.75
2019-03-23T22:38:48.663Z,9.67
2019-03-23T22:41:16.327Z,9.65
2019-03-23T22:43:44.006Z,9.83
2019-03-23T22:46:11.719Z,9.62
2019-03-23T22:48:39.401Z,9.77
2019-03-23T22:51:07.091Z,9.63
2019-03-23T22:53:34.755Z,9.53
2019-03-23T22:56:02.645Z,9.51
2019-03-23T22:58:30.355Z,9.52
2019-03-23T23:00:58.042Z,9.51
2019-03-23T23:03:25.918Z,9.48
2019-03-23T23:05:53.937Z,9.48
2019-03-23T23:08:21.707Z,9.50
2019-03-23T23:10:49.363Z,9.60
2019-03-23T23:13:17.026Z,9.67
2019-03-23T23:15:44.745Z,9.50
2019-03-23T23:18:12.416Z,9.36
2019-03-23T23:20:40.071Z,9.63
2019-03-23T23:23:07.815Z,9.69
2019-03-23T23:25:35.742Z,9.64
2019-03-23T23:28:03.442Z,9.83
2019-03-23T23:30:31.103Z,9.77
2019-03-23T23:32:58.770Z,9.70
2019-03-23T23:35:26.482Z,9.74
2019-03-23T23:37:54.144Z,9.67
2019-03-23T23:40:21.803Z,9.55
2019-03-23T23:42:49.710Z,9.67
2019-03-23T23:45:17.421Z,9.68
2019-03-23T23:47:45.158Z,9.55
2019-03-23T23:50:12.829Z,9.39
2019-03-23T23:52:40.480Z,9.28
2019-03-23T23:55:08.147Z,9.54
2019-03-23T23:57:35.807Z,9.54
